KDOV/DOV METAR and TAF weather

Enter ICAO airport designator
Station Type Date Time Source
KDOV METAR 2024/05/28 22:55 UTC NOAA

KDOV 282255Z AUTO 24015G21KT 10SM CLR 27/12 A2979 RMK AO2 SLP091 T02690121


Station Type Date Time Source
KDOV Decoded METAR 2024/05/28 22:55 UTC NOAA

Dover Air Force Base, DE, United States (KDOV) 39-08N 075-28W
May 28, 2024 - 06:55 PM EDT / 2024.05.28 2255 UTC
Wind: from the WSW (240 degrees) at 17 MPH (15 KT) gusting to 24 MPH (21 KT):0
Visibility: 10 mile(s):0
Sky conditions: clear
Temperature: 80.4 F (26.9 C)
Dew Point: 53.8 F (12.1 C)
Relative Humidity: 39%
Pressure (altimeter): 29.79 in. Hg (1008 hPa)
ob: KDOV 282255Z AUTO 24015G21KT 10SM CLR 27/12 A2979 RMK AO2 SLP091 T02690121
cycle: 23

Station Type Date Time Source
KDOV TAF 2024/05/28 16:16 UTC NOAA